createdAt,value
2023-04-27T00:01:20.496Z,5.00
2023-04-27T00:05:03.862Z,4.90
2023-04-27T00:08:48.118Z,5.40
2023-04-27T00:12:30.787Z,4.87
2023-04-27T00:16:13.578Z,4.90
2023-04-27T00:19:56.321Z,5.00
2023-04-27T00:23:38.968Z,5.40
2023-04-27T00:27:22.963Z,5.03
2023-04-27T00:31:05.917Z,5.17
2023-04-27T00:34:48.560Z,5.30
2023-04-27T00:38:31.591Z,5.27
2023-04-27T00:42:19.578Z,5.30
2023-04-27T00:46:03.689Z,5.33
2023-04-27T00:49:46.409Z,5.00
2023-04-27T00:53:29.210Z,4.90
2023-04-27T00:57:12.010Z,5.07
2023-04-27T01:00:54.771Z,5.23
2023-04-27T01:04:38.886Z,4.80
2023-04-27T01:08:21.595Z,5.30
2023-04-27T01:12:04.666Z,5.40
2023-04-27T01:15:47.296Z,4.97
2023-04-27T01:19:31.231Z,5.23
2023-04-27T01:23:17.328Z,4.93
2023-04-27T01:27:00.227Z,5.50
2023-04-27T01:30:42.840Z,5.03
2023-04-27T01:34:25.453Z,4.73
2023-04-27T01:38:08.114Z,4.70
2023-04-27T01:41:52.148Z,5.27
2023-04-27T01:45:34.772Z,5.03
2023-04-27T01:49:17.478Z,5.43
2023-04-27T01:53:00.130Z,5.13
2023-04-27T01:56:43.115Z,5.57
2023-04-27T02:00:27.222Z,5.80
2023-04-27T02:04:09.986Z,5.60
2023-04-27T02:07:52.783Z,5.97
2023-04-27T02:11:35.430Z,6.07
2023-04-27T02:15:18.415Z,6.30
2023-04-27T02:19:03.117Z,5.70
2023-04-27T02:22:45.901Z,5.70
2023-04-27T02:26:29.494Z,6.27
2023-04-27T02:30:12.906Z,6.03
2023-04-27T02:33:58.689Z,5.90
2023-04-27T02:37:42.691Z,6.03
2023-04-27T02:41:27.945Z,6.40
2023-04-27T02:45:11.154Z,5.87
2023-04-27T02:48:53.786Z,5.43
2023-04-27T02:52:36.450Z,6.00
2023-04-27T02:56:20.671Z,6.30
2023-04-27T03:00:06.877Z,6.37
2023-04-27T03:03:49.700Z,5.60
2023-04-27T03:07:32.492Z,7.10
2023-04-27T03:11:15.078Z,10.70
2023-04-27T03:14:59.659Z,7.33
2023-04-27T03:18:42.298Z,6.60
2023-04-27T03:22:25.004Z,6.00
2023-04-27T03:26:08.462Z,6.97
2023-04-27T03:29:52.738Z,6.37
2023-04-27T03:33:37.424Z,5.93
2023-04-27T03:37:20.061Z,6.47
2023-04-27T03:41:02.716Z,6.00
2023-04-27T03:44:48.221Z,5.67
2023-04-27T03:48:30.957Z,6.13
2023-04-27T03:52:14.942Z,6.30
2023-04-27T03:55:57.557Z,5.60
2023-04-27T03:59:40.176Z,5.63
2023-04-27T04:03:23.001Z,5.57
2023-04-27T04:07:05.850Z,6.27
2023-04-27T04:10:49.848Z,6.50
2023-04-27T04:14:32.529Z,5.83
2023-04-27T04:18:15.174Z,6.23
2023-04-27T04:21:57.867Z,6.20
2023-04-27T04:25:41.615Z,6.63
2023-04-27T04:29:25.686Z,6.33
2023-04-27T04:33:08.710Z,6.13
2023-04-27T04:36:52.266Z,6.50
2023-04-27T04:40:34.988Z,5.90
2023-04-27T04:44:17.702Z,6.43
2023-04-27T04:48:02.086Z,6.10
2023-04-27T04:51:45.625Z,6.67
2023-04-27T04:55:31.197Z,7.13
2023-04-27T04:59:14.046Z,6.27
2023-04-27T05:02:56.978Z,6.00
2023-04-27T05:06:41.652Z,5.70
2023-04-27T05:10:24.258Z,6.00
2023-04-27T05:14:09.494Z,5.90
2023-04-27T05:17:54.103Z,6.07
2023-04-27T05:21:36.768Z,6.77
2023-04-27T05:25:20.863Z,6.87
2023-04-27T05:29:03.506Z,6.47
2023-04-27T05:32:46.279Z,6.47
2023-04-27T05:36:29.306Z,6.50
2023-04-27T05:40:12.472Z,7.03
2023-04-27T05:43:56.453Z,6.27
2023-04-27T05:47:39.218Z,11.20
2023-04-27T05:51:23.830Z,7.87
2023-04-27T05:55:08.056Z,8.37
2023-04-27T05:58:50.946Z,7.23
2023-04-27T06:02:35.259Z,7.53
2023-04-27T06:06:18.017Z,7.00
2023-04-27T06:10:03.084Z,7.80
2023-04-27T06:13:46.312Z,8.30
2023-04-27T06:17:28.983Z,8.00
2023-04-27T06:21:12.989Z,7.63
2023-04-27T06:24:55.605Z,8.00
2023-04-27T06:28:38.278Z,7.40
2023-04-27T06:32:21.027Z,6.80
2023-04-27T06:36:03.706Z,8.67
2023-04-27T06:39:47.958Z,7.00
2023-04-27T06:43:30.956Z,11.30
2023-04-27T06:47:13.723Z,7.30
2023-04-27T06:50:56.582Z,7.03
2023-04-27T06:54:39.224Z,6.00
2023-04-27T06:58:27.032Z,5.97
2023-04-27T07:02:09.698Z,6.63
2023-04-27T07:05:53.095Z,6.70
2023-04-27T07:09:37.708Z,6.40
2023-04-27T07:13:20.361Z,6.20
2023-04-27T07:17:04.424Z,6.60
2023-04-27T07:20:47.070Z,6.40
2023-04-27T07:24:29.832Z,6.90
2023-04-27T07:28:12.781Z,6.17
2023-04-27T07:31:55.680Z,5.93
2023-04-27T07:35:40.095Z,5.90
2023-04-27T07:39:23.494Z,5.90
2023-04-27T07:43:06.159Z,7.23
2023-04-27T07:46:49.415Z,6.07
2023-04-27T07:50:32.938Z,5.33
2023-04-27T07:54:17.086Z,5.97
2023-04-27T07:57:59.806Z,5.23
2023-04-27T08:01:42.904Z,4.73
2023-04-27T08:05:25.853Z,5.57
2023-04-27T08:09:09.484Z,5.50
2023-04-27T08:12:53.489Z,5.30
2023-04-27T08:16:36.578Z,5.50
2023-04-27T08:20:19.301Z,5.00
2023-04-27T08:24:02.359Z,5.17
2023-04-27T08:27:45.006Z,4.90
2023-04-27T08:31:29.045Z,5.10
2023-04-27T08:35:14.810Z,4.90
2023-04-27T08:38:57.501Z,5.87
2023-04-27T08:42:41.592Z,5.50
2023-04-27T08:46:27.002Z,5.30
2023-04-27T08:50:12.195Z,5.70
2023-04-27T08:53:56.564Z,5.53
2023-04-27T08:57:39.322Z,5.73
2023-04-27T09:01:22.640Z,5.87
2023-04-27T09:05:06.464Z,6.40
2023-04-27T09:08:51.485Z,5.63
2023-04-27T09:12:34.088Z,5.63
2023-04-27T09:16:17.168Z,5.50
2023-04-27T09:20:08.908Z,4.73
2023-04-27T09:23:53.588Z,5.20
2023-04-27T09:27:36.413Z,5.23
2023-04-27T09:31:19.455Z,4.40
2023-04-27T09:35:02.203Z,4.57
2023-04-27T09:38:45.086Z,4.17
2023-04-27T09:42:29.140Z,4.30
2023-04-27T09:46:12.478Z,3.97
2023-04-27T09:49:55.225Z,3.90
2023-04-27T09:53:41.722Z,4.20
2023-04-27T09:57:32.252Z,3.83
2023-04-27T10:01:24.032Z,3.97
2023-04-27T10:05:21.408Z,4.50
2023-04-27T10:09:07.437Z,4.57
2023-04-27T10:13:07.402Z,4.53
2023-04-27T10:16:53.368Z,4.30
2023-04-27T10:20:37.553Z,5.07
2023-04-27T10:24:20.372Z,4.33
2023-04-27T10:28:04.803Z,3.87
2023-04-27T10:31:49.915Z,3.77
2023-04-27T10:35:37.334Z,3.90
2023-04-27T10:39:35.939Z,3.60
2023-04-27T10:43:29.959Z,3.13
2023-04-27T10:47:16.791Z,3.37
2023-04-27T10:50:59.866Z,3.10
2023-04-27T10:54:46.847Z,3.40
2023-04-27T10:58:41.512Z,3.50
2023-04-27T11:02:31.359Z,3.10
2023-04-27T11:06:14.129Z,3.50
2023-04-27T11:09:56.922Z,4.00
2023-04-27T11:13:41.415Z,8.83
2023-04-27T11:17:30.125Z,3.93
2023-04-27T11:21:13.965Z,3.40
2023-04-27T11:24:56.988Z,3.80
2023-04-27T11:28:41.131Z,3.50
2023-04-27T11:32:24.807Z,3.40
2023-04-27T11:36:17.537Z,5.13
2023-04-27T11:40:01.399Z,3.70
2023-04-27T11:43:47.016Z,3.47
2023-04-27T11:47:31.437Z,3.30
2023-04-27T11:51:14.106Z,3.20
2023-04-27T11:54:56.954Z,3.03
2023-04-27T11:58:40.550Z,3.30
2023-04-27T12:02:24.913Z,3.20
2023-04-27T12:06:22.021Z,3.00
2023-04-27T12:10:13.555Z,2.50
2023-04-27T12:13:56.747Z,2.80
2023-04-27T12:17:41.549Z,3.00
2023-04-27T12:21:24.235Z,2.60
2023-04-27T12:25:08.647Z,3.27
2023-04-27T12:28:51.302Z,3.03
2023-04-27T12:32:34.027Z,3.03
2023-04-27T12:36:18.194Z,3.30
2023-04-27T12:40:00.947Z,3.10
2023-04-27T12:43:43.889Z,2.67
2023-04-27T12:47:46.365Z,2.90
2023-04-27T12:51:31.126Z,2.97
2023-04-27T12:55:28.990Z,3.10
2023-04-27T12:59:16.756Z,3.20
2023-04-27T13:02:59.483Z,2.47
2023-04-27T13:06:43.622Z,3.00
2023-04-27T13:10:26.334Z,2.73
2023-04-27T13:14:09.887Z,3.00
2023-04-27T13:17:53.253Z,2.93
2023-04-27T13:21:36.144Z,3.50
2023-04-27T13:25:20.826Z,3.23
2023-04-27T13:29:04.735Z,2.80
2023-04-27T13:32:47.492Z,2.70
2023-04-27T13:36:30.232Z,3.20
2023-04-27T13:40:13.483Z,3.20
2023-04-27T13:43:57.498Z,3.30
2023-04-27T13:47:40.718Z,2.80
2023-04-27T13:51:23.499Z,2.67
2023-04-27T13:55:06.929Z,3.27
2023-04-27T13:58:49.738Z,3.20
2023-04-27T14:02:35.958Z,3.23
2023-04-27T14:06:18.648Z,2.57
2023-04-27T14:10:01.280Z,2.50
2023-04-27T14:13:43.909Z,2.30
2023-04-27T14:17:26.763Z,2.87
2023-04-27T14:21:11.131Z,2.70
2023-04-27T14:24:53.915Z,2.70
2023-04-27T14:28:36.830Z,2.47
2023-04-27T14:32:19.648Z,2.30
2023-04-27T14:36:02.356Z,2.53
2023-04-27T14:39:46.533Z,3.33
2023-04-27T14:43:29.198Z,2.80
2023-04-27T14:47:11.832Z,2.80
2023-04-27T14:50:54.643Z,2.50
2023-04-27T14:54:38.452Z,2.80
2023-04-27T14:58:22.430Z,2.57
2023-04-27T15:02:05.095Z,2.53
2023-04-27T15:05:47.737Z,2.80
2023-04-27T15:09:30.403Z,2.20
2023-04-27T15:13:13.045Z,2.73
2023-04-27T15:16:57.047Z,2.40
2023-04-27T15:20:39.717Z,3.40
2023-04-27T15:24:22.362Z,3.10
2023-04-27T15:28:05.157Z,3.20
2023-04-27T15:31:48.342Z,2.20
2023-04-27T15:35:32.478Z,2.37
2023-04-27T15:39:15.436Z,2.10
2023-04-27T15:42:58.964Z,2.00
2023-04-27T15:46:41.723Z,1.93
2023-04-27T15:50:24.515Z,3.37
2023-04-27T15:54:08.521Z,2.08
2023-04-27T15:57:51.268Z,1.90
2023-04-27T16:01:33.914Z,3.78
2023-04-27T16:05:16.676Z,2.40
2023-04-27T16:08:59.302Z,2.20
2023-04-27T16:12:43.301Z,2.30
2023-04-27T16:16:26.768Z,1.98
2023-04-27T16:20:10.120Z,2.13
2023-04-27T16:23:52.721Z,1.95
2023-04-27T16:27:35.330Z,2.00
2023-04-27T16:31:19.330Z,2.73
2023-04-27T16:35:01.989Z,2.80
2023-04-27T16:38:44.636Z,4.17
2023-04-27T16:42:27.287Z,2.20
2023-04-27T16:46:11.365Z,3.28
2023-04-27T16:49:55.460Z,1.90
2023-04-27T16:53:38.231Z,1.80
2023-04-27T16:57:21.120Z,2.40
2023-04-27T17:01:04.685Z,2.60
2023-04-27T17:04:47.481Z,2.15
2023-04-27T17:08:43.018Z,1.95
2023-04-27T17:12:26.156Z,2.70
2023-04-27T17:16:11.663Z,2.40
2023-04-27T17:19:54.336Z,2.40
2023-04-27T17:23:38.666Z,3.23
2023-04-27T17:27:22.100Z,2.50
2023-04-27T17:31:04.869Z,3.00
2023-04-27T17:34:47.565Z,3.70
2023-04-27T17:38:30.254Z,2.77
2023-04-27T17:42:14.220Z,2.70
2023-04-27T17:45:56.870Z,2.60
2023-04-27T17:49:39.503Z,3.83
2023-04-27T17:53:22.116Z,3.33
2023-04-27T17:57:05.074Z,2.90
2023-04-27T18:00:49.140Z,3.40
2023-04-27T18:04:31.964Z,2.83
2023-04-27T18:08:14.667Z,2.87
2023-04-27T18:11:57.283Z,2.77
2023-04-27T18:15:39.971Z,2.90
2023-04-27T18:19:23.935Z,3.50
2023-04-27T18:23:06.585Z,3.60
2023-04-27T18:26:49.304Z,3.77
2023-04-27T18:30:32.090Z,3.67
2023-04-27T18:34:14.718Z,3.53
2023-04-27T18:37:58.696Z,3.67
2023-04-27T18:41:41.338Z,3.77
2023-04-27T18:45:24.020Z,4.40
2023-04-27T18:49:06.671Z,3.93
2023-04-27T18:52:49.400Z,3.73
2023-04-27T18:56:33.391Z,3.70
2023-04-27T19:00:17.027Z,20.23
2023-04-27T19:04:00.387Z,9.90
2023-04-27T19:07:43.250Z,6.33
2023-04-27T19:11:25.957Z,8.77
2023-04-27T19:15:11.499Z,5.27
2023-04-27T19:18:54.337Z,4.17
2023-04-27T19:22:37.136Z,3.73
2023-04-27T19:26:19.765Z,4.20
2023-04-27T19:30:03.832Z,4.10
2023-04-27T19:37:37.311Z,4.33
2023-04-27T19:41:19.955Z,4.27
2023-04-27T19:45:03.917Z,4.17
2023-04-27T19:48:47.938Z,4.33
2023-04-27T19:52:31.249Z,4.20
2023-04-27T19:56:13.896Z,4.23
2023-04-27T19:59:57.001Z,4.30
2023-04-27T20:03:40.139Z,4.80
2023-04-27T20:07:26.765Z,6.63
2023-04-27T20:11:09.445Z,7.03
2023-04-27T20:14:52.111Z,6.87
2023-04-27T20:18:34.997Z,5.30
2023-04-27T20:22:17.679Z,5.13
2023-04-27T20:26:01.725Z,4.23
2023-04-27T20:29:46.523Z,4.30
2023-04-27T20:33:29.233Z,4.37
2023-04-27T20:37:11.852Z,4.67
2023-04-27T20:40:54.791Z,5.07
2023-04-27T20:44:39.042Z,4.60
2023-04-27T20:48:21.776Z,4.90
2023-04-27T20:52:04.471Z,4.90
2023-04-27T20:55:47.238Z,4.33
2023-04-27T20:59:29.852Z,4.53
2023-04-27T21:03:14.213Z,4.50
2023-04-27T21:06:56.944Z,4.53
2023-04-27T21:10:39.602Z,6.30
2023-04-27T21:14:22.227Z,6.10
2023-04-27T21:18:07.880Z,5.43
2023-04-27T21:21:53.713Z,4.57
2023-04-27T21:25:36.401Z,5.27
2023-04-27T21:29:19.192Z,4.80
2023-04-27T21:33:01.832Z,4.83
2023-04-27T21:36:44.439Z,4.70
2023-04-27T21:40:28.485Z,4.67
2023-04-27T21:44:11.236Z,5.00
2023-04-27T21:47:53.941Z,4.90
2023-04-27T21:51:36.943Z,4.60
2023-04-27T21:55:19.663Z,4.67
2023-04-27T21:59:04.020Z,4.27
2023-04-27T22:02:47.066Z,4.83
2023-04-27T22:06:30.669Z,4.80
2023-04-27T22:10:13.306Z,4.90
2023-04-27T22:13:56.233Z,4.90
2023-04-27T22:17:40.631Z,4.30
2023-04-27T22:21:23.294Z,5.20
2023-04-27T22:25:06.795Z,4.30
2023-04-27T22:28:49.533Z,4.40
2023-04-27T22:32:32.662Z,4.67
2023-04-27T22:36:16.824Z,4.23
2023-04-27T22:39:59.461Z,4.17
2023-04-27T22:43:42.089Z,3.90
2023-04-27T22:47:25.423Z,4.20
2023-04-27T22:51:09.606Z,3.70
2023-04-27T22:54:54.931Z,3.90
2023-04-27T22:58:37.555Z,3.70
2023-04-27T23:02:20.215Z,3.70
2023-04-27T23:06:02.898Z,3.80
2023-04-27T23:09:45.943Z,4.13
2023-04-27T23:13:30.048Z,3.83
2023-04-27T23:17:12.709Z,3.47
2023-04-27T23:20:55.594Z,3.67
2023-04-27T23:24:38.254Z,3.63
2023-04-27T23:28:22.373Z,3.53
2023-04-27T23:32:07.529Z,3.17
2023-04-27T23:35:50.190Z,3.00
2023-04-27T23:39:32.823Z,2.90
2023-04-27T23:43:15.585Z,2.97
2023-04-27T23:46:58.408Z,3.10
2023-04-27T23:50:42.370Z,2.90
2023-04-27T23:54:25.971Z,2.87
2023-04-27T23:58:08.619Z,3.13
